Time;durP1;ratioP1;P1;durP2;ratioP2;P2;SDS_P1;SDS_P2;PMS_P1;PMS_P2;Temp;Humidity;BMP_temperature;BMP_pressure;BME280_temperature;BME280_humidity;BME280_pressure;Samples;Min_cycle;Max_cycle;Signal;HPM_P1;HPM_P2
2023/08/14 00:01:47;;;;;;;;;7.00;5.00;;;;;23.61;66.98;100204.81;5029092;28;47627;-73
2023/08/14 00:04:13;;;;;;;;;6.00;4.33;;;;;23.60;67.75;100202.22;5036571;28;45436;-68
2023/08/14 00:06:38;;;;;;;;;3.67;3.00;;;;;23.50;68.46;100196.28;5035661;28;45554;-70
2023/08/14 00:09:04;;;;;;;;;7.33;5.00;;;;;23.42;68.56;100188.50;5036077;28;45572;-70
2023/08/14 00:11:30;;;;;;;;;4.00;3.00;;;;;23.43;68.55;100186.69;5037632;28;45486;-69
2023/08/14 00:13:56;;;;;;;;;5.67;3.00;;;;;23.19;68.85;100173.13;5036561;28;45517;-70
2023/08/14 00:16:24;;;;;;;;;4.67;4.00;;;;;23.26;68.58;100178.28;5037030;28;46027;-70
2023/08/14 00:18:50;;;;;;;;;3.33;3.33;;;;;23.35;67.90;100175.38;5044786;28;45465;-70
2023/08/14 00:21:25;;;;;;;;;4.00;3.00;;;;;23.42;68.10;100164.50;5041977;28;45493;-69
2023/08/14 00:23:56;;;;;;;;;4.33;4.00;;;;;23.54;67.68;100170.41;5044280;28;45295;-69
2023/08/14 00:26:27;;;;;;;;;3.67;3.00;;;;;23.62;67.99;100166.56;5047928;28;45501;-70
2023/08/14 00:28:58;;;;;;;;;7.67;6.00;;;;;23.63;67.85;100167.44;5043103;28;45565;-70
2023/08/14 00:31:39;;;;;;;;;6.00;3.33;;;;;23.70;67.43;100171.69;5044753;28;46104;-69
2023/08/14 00:34:04;;;;;;;;;5.00;4.00;;;;;23.70;67.67;100152.16;5044094;28;45478;-70
2023/08/14 00:36:30;;;;;;;;;3.67;3.00;;;;;23.76;67.62;100168.81;5042557;28;45335;-70
2023/08/14 00:38:56;;;;;;;;;3.67;3.00;;;;;23.75;67.43;100152.88;5044649;28;46737;-70
2023/08/14 00:41:22;;;;;;;;;4.33;3.00;;;;;23.90;66.89;100149.75;5037766;28;46685;-70
2023/08/14 00:43:48;;;;;;;;;7.33;5.00;;;;;23.88;66.81;100143.59;5039747;28;45532;-70
2023/08/14 00:46:15;;;;;;;;;6.00;4.00;;;;;23.94;66.93;100151.41;5043624;28;45333;-70
2023/08/14 00:48:41;;;;;;;;;3.00;3.00;;;;;23.91;66.53;100156.84;5045602;28;45425;-69
2023/08/14 00:51:07;;;;;;;;;4.33;4.33;;;;;23.91;66.91;100156.84;5042495;28;46062;-70
2023/08/14 00:53:33;;;;;;;;;3.00;3.00;;;;;23.91;66.72;100159.50;5042673;28;46401;-70
2023/08/14 00:56:01;;;;;;;;;5.00;3.00;;;;;23.89;66.84;100155.13;5040402;28;45604;-70
2023/08/14 00:58:28;;;;;;;;;4.67;4.00;;;;;23.77;67.01;100133.25;5038746;28;47186;-70
2023/08/14 01:00:54;;;;;;;;;4.67;4.00;;;;;23.88;67.25;100151.59;5038148;28;46206;-70
2023/08/14 01:03:23;;;;;;;;;4.33;4.00;;;;;23.95;66.92;100152.28;5035906;28;45634;-69
2023/08/14 01:05:49;;;;;;;;;3.00;3.00;;;;;23.94;66.75;100137.22;5040690;28;45471;-70
2023/08/14 01:08:14;;;;;;;;;4.00;4.00;;;;;24.02;66.83;100143.16;5035768;28;45501;-70
2023/08/14 01:11:02;;;;;;;;;3.33;3.00;;;;;23.99;66.63;100132.59;5035394;28;45711;-71
2023/08/14 01:13:56;;;;;;;;;4.33;3.33;;;;;23.96;66.40;100122.88;5039672;28;45564;-69
2023/08/14 01:16:27;;;;;;;;;4.67;4.00;;;;;23.97;66.25;100123.75;5035720;28;45603;-70
2023/08/14 01:18:55;;;;;;;;;3.67;3.67;;;;;23.99;66.89;100133.47;5039098;28;45507;-70
2023/08/14 01:21:35;;;;;;;;;4.67;3.00;;;;;23.91;67.24;100127.47;5043385;28;46352;-70
2023/08/14 01:24:19;;;;;;;;;5.00;3.67;;;;;23.81;67.71;100121.59;5033514;28;45406;-70
2023/08/14 01:26:46;;;;;;;;;3.00;2.67;;;;;23.84;67.48;100130.44;5034184;28;45514;-70
2023/08/14 01:29:13;;;;;;;;;6.00;4.67;;;;;23.77;67.55;100105.69;5037578;28;45312;-70
2023/08/14 01:31:53;;;;;;;;;5.33;4.67;;;;;23.87;66.91;100120.50;5035765;28;46202;-70
2023/08/14 01:34:24;;;;;;;;;4.00;3.00;;;;;23.91;66.86;100108.81;5021929;28;45474;-70
2023/08/14 01:37:11;;;;;;;;;3.67;3.33;;;;;23.90;67.12;100111.56;5036143;28;45584;-71
2023/08/14 01:39:46;;;;;;;;;3.00;3.00;;;;;23.81;67.32;100099.34;5032548;28;45498;-70
2023/08/14 01:42:25;;;;;;;;;4.00;2.00;;;;;23.82;67.82;100120.66;5036111;28;46239;-70
2023/08/14 01:44:56;;;;;;;;;3.00;2.00;;;;;23.85;67.25;100109.00;5029037;28;45497;-71
2023/08/14 01:47:25;;;;;;;;;3.33;3.33;;;;;23.89;67.25;100099.13;5036646;28;45562;-70
2023/08/14 01:49:53;;;;;;;;;5.33;3.00;;;;;23.91;67.22;100094.59;5018669;28;45517;-71
2023/08/14 01:52:19;;;;;;;;;4.00;3.00;;;;;23.79;67.45;100090.53;5036248;28;45337;-70
2023/08/14 01:54:45;;;;;;;;;2.00;2.00;;;;;23.80;67.39;100090.50;5035340;28;45423;-70
2023/08/14 01:57:10;;;;;;;;;4.00;2.67;;;;;23.77;67.23;100087.00;5035412;28;45589;-70
2023/08/14 01:59:44;;;;;;;;;3.67;2.00;;;;;23.68;67.46;100082.84;5035351;28;45561;-70
2023/08/14 02:02:13;;;;;;;;;4.00;4.00;;;;;23.62;67.99;100073.25;5037204;28;45596;-69
2023/08/14 02:04:40;;;;;;;;;6.00;5.00;;;;;23.46;68.08;100052.44;5033975;28;45482;-70
2023/08/14 02:07:06;;;;;;;;;3.00;3.00;;;;;23.59;67.38;100068.00;5038206;28;45481;-70
2023/08/14 02:09:33;;;;;;;;;6.00;4.00;;;;;23.61;67.68;100059.97;5038101;28;45449;-70
2023/08/14 02:11:59;;;;;;;;;5.67;4.00;;;;;23.68;67.63;100063.31;5034294;28;46495;-70
2023/08/14 02:14:25;;;;;;;;;5.00;3.67;;;;;23.66;68.28;100068.69;5038476;28;45644;-69
2023/08/14 02:16:51;;;;;;;;;4.00;3.67;;;;;23.57;68.12;100053.84;5035026;28;45519;-70
2023/08/14 02:19:16;;;;;;;;;4.00;3.00;;;;;23.58;67.84;100047.59;5034743;28;45560;-70
2023/08/14 02:21:42;;;;;;;;;5.00;4.00;;;;;23.66;67.69;100065.16;5034371;28;45852;-70
2023/08/14 02:24:08;;;;;;;;;4.00;4.00;;;;;23.66;68.11;100066.03;5034027;28;45552;-70
2023/08/14 02:26:34;;;;;;;;;5.00;4.00;;;;;23.71;67.89;100065.88;5033441;28;45437;-70
2023/08/14 02:29:00;;;;;;;;;16.00;13.00;;;;;23.65;67.80;100042.06;5032986;28;45374;-70
2023/08/14 02:31:25;;;;;;;;;5.00;3.33;;;;;23.72;67.81;100056.97;5033576;28;45566;-70
2023/08/14 02:34:01;;;;;;;;;4.67;3.67;;;;;23.69;67.44;100054.38;5034364;28;45660;-69
2023/08/14 02:36:27;;;;;;;;;5.00;5.00;;;;;23.65;67.63;100055.41;5034517;28;45345;-70
2023/08/14 02:38:54;;;;;;;;;3.33;3.00;;;;;23.65;67.35;100052.75;5038902;28;45434;-70
2023/08/14 02:41:20;;;;;;;;;5.00;4.00;;;;;23.62;67.92;100048.38;5038495;28;45468;-69
2023/08/14 02:43:46;;;;;;;;;3.00;2.67;;;;;23.56;67.54;100045.91;5038332;28;45596;-70
2023/08/14 02:46:12;;;;;;;;;3.67;3.67;;;;;23.51;68.00;100046.03;5037527;28;45628;-70
2023/08/14 02:48:37;;;;;;;;;4.00;3.67;;;;;23.39;68.00;100031.31;5039233;28;45590;-69
2023/08/14 02:51:03;;;;;;;;;5.00;5.00;;;;;23.30;68.24;100017.38;5037850;28;45414;-69
2023/08/14 02:53:29;;;;;;;;;6.00;5.33;;;;;23.29;67.98;100027.19;5038047;28;45362;-69
2023/08/14 02:55:56;;;;;;;;;7.33;5.67;;;;;23.22;68.14;100038.97;5038048;28;45383;-69
2023/08/14 02:58:22;;;;;;;;;6.00;4.00;;;;;23.19;68.75;100047.91;5036482;28;45470;-69
2023/08/14 03:00:48;;;;;;;;;6.00;5.33;;;;;23.13;68.72;100045.44;5037235;28;46268;-69
2023/08/14 03:03:14;;;;;;;;;5.00;5.00;;;;;23.08;69.07;100046.47;5037566;28;45522;-69
2023/08/14 03:05:40;;;;;;;;;7.00;5.00;;;;;23.11;68.53;100047.25;5037567;28;45574;-70
2023/08/14 03:08:07;;;;;;;;;5.00;4.00;;;;;23.11;68.57;100041.94;5038327;28;45665;-70
2023/08/14 03:10:33;;;;;;;;;5.67;3.33;;;;;23.10;68.84;100048.19;5037427;28;46046;-70
2023/08/14 03:13:00;;;;;;;;;4.67;4.33;;;;;23.02;68.87;100048.41;5038060;28;45347;-70
2023/08/14 03:15:26;;;;;;;;;5.33;5.00;;;;;23.08;68.93;100042.03;5037297;28;45466;-69
2023/08/14 03:17:52;;;;;;;;;4.00;4.00;;;;;23.03;68.63;100038.63;5038150;28;45481;-70
2023/08/14 03:20:18;;;;;;;;;4.00;4.00;;;;;23.11;69.03;100035.75;5037543;28;46129;-70
2023/08/14 03:22:44;;;;;;;;;4.00;3.00;;;;;23.09;68.95;100038.44;5037391;28;45303;-70
2023/08/14 03:25:09;;;;;;;;;5.67;3.67;;;;;23.08;68.34;100034.06;5036164;28;45496;-70
2023/08/14 03:27:36;;;;;;;;;5.00;4.00;;;;;22.98;68.81;100029.88;5037756;28;45454;-70
2023/08/14 03:30:03;;;;;;;;;6.33;4.67;;;;;22.97;69.00;100028.13;5037562;28;45585;-70
2023/08/14 03:32:28;;;;;;;;;7.00;5.00;;;;;22.94;68.86;100026.44;5037589;28;45759;-70
2023/08/14 03:34:54;;;;;;;;;4.33;4.00;;;;;22.92;69.62;100024.72;5036004;28;45536;-70
2023/08/14 03:37:20;;;;;;;;;4.67;3.67;;;;;22.88;69.30;100029.28;5038107;28;46189;-69
2023/08/14 03:39:46;;;;;;;;;6.00;3.00;;;;;22.88;69.10;100028.38;5037617;28;46151;-70
2023/08/14 03:42:11;;;;;;;;;5.00;4.33;;;;;22.87;69.74;100031.97;5038249;28;45390;-69
2023/08/14 03:44:37;;;;;;;;;4.67;4.00;;;;;22.74;69.53;100018.13;5037528;28;45465;-70
2023/08/14 03:47:13;;;;;;;;;4.67;3.00;;;;;22.78;69.72;100026.00;5037742;28;45481;-70
2023/08/14 03:50:04;;;;;;;;;6.33;4.33;;;;;22.74;69.53;100020.78;5037225;28;46035;-70
2023/08/14 03:52:30;;;;;;;;;6.00;5.33;;;;;22.71;70.13;100021.75;5037614;28;45465;-69
2023/08/14 03:54:55;;;;;;;;;5.00;3.67;;;;;22.71;69.78;100021.75;5037541;28;45379;-70
2023/08/14 03:57:21;;;;;;;;;6.00;5.00;;;;;22.73;69.93;100027.91;5038639;28;45472;-70
2023/08/14 03:59:47;;;;;;;;;4.00;4.00;;;;;22.64;69.88;100023.72;5037452;28;46055;-69
2023/08/14 04:02:13;;;;;;;;;7.67;4.00;;;;;22.49;70.63;100018.81;5036544;28;45558;-69
2023/08/14 04:04:39;;;;;;;;;5.00;4.00;;;;;22.36;70.53;100010.31;5036969;28;45431;-69
2023/08/14 04:07:05;;;;;;;;;4.00;3.33;;;;;22.42;70.36;100014.56;5038249;28;45351;-69
2023/08/14 04:09:30;;;;;;;;;3.00;1.33;;;;;22.32;70.51;100021.97;5037620;28;45362;-69
2023/08/14 04:11:56;;;;;;;;;7.33;5.67;;;;;22.21;71.36;100021.31;5037628;28;45717;-70
2023/08/14 04:14:23;;;;;;;;;5.00;4.00;;;;;22.25;70.94;100028.34;5037022;28;45450;-69
2023/08/14 04:16:49;;;;;;;;;5.33;5.00;;;;;22.28;71.07;100022.06;5037931;28;45526;-70
2023/08/14 04:19:17;;;;;;;;;4.00;3.67;;;;;22.31;71.12;100028.19;5037568;28;45651;-70
2023/08/14 04:21:43;;;;;;;;;5.00;5.00;;;;;22.30;71.11;100036.19;5037603;28;45456;-69
2023/08/14 04:24:09;;;;;;;;;5.00;4.00;;;;;22.35;70.35;100035.16;5037478;28;45489;-69
2023/08/14 04:26:38;;;;;;;;;4.33;4.00;;;;;22.48;70.85;100034.81;5037724;28;45496;-70
2023/08/14 04:29:07;;;;;;;;;3.33;3.00;;;;;22.58;70.17;100028.34;5037348;28;46274;-70
2023/08/14 04:31:34;;;;;;;;;5.67;4.00;;;;;22.64;69.55;100033.47;5017039;28;45259;-70
2023/08/14 04:34:01;;;;;;;;;7.00;5.00;;;;;22.70;69.50;100027.13;5037626;28;45276;-70
2023/08/14 04:36:27;;;;;;;;;5.33;4.00;;;;;22.73;69.38;100013.72;5035719;28;45550;-70
2023/08/14 04:38:53;;;;;;;;;4.00;4.00;;;;;22.72;69.49;100017.28;5037371;28;45965;-70
2023/08/14 04:41:19;;;;;;;;;4.33;3.33;;;;;22.74;68.84;100021.69;5035383;28;45437;-70
2023/08/14 04:43:44;;;;;;;;;5.67;4.67;;;;;22.70;69.02;100006.72;5037432;28;45522;-69
2023/08/14 04:46:11;;;;;;;;;3.33;3.00;;;;;22.68;69.11;100018.31;5038580;28;45490;-70
2023/08/14 04:48:38;;;;;;;;;3.00;3.00;;;;;22.54;69.69;100000.94;5037299;28;46248;-69
2023/08/14 04:51:06;;;;;;;;;5.33;4.33;;;;;22.63;69.33;100011.31;5037409;28;45556;-69
2023/08/14 04:53:32;;;;;;;;;4.33;4.00;;;;;22.71;69.16;100007.56;5037079;28;45498;-69
2023/08/14 04:55:58;;;;;;;;;3.67;3.00;;;;;22.77;69.41;100015.38;5036771;28;45400;-69
2023/08/14 04:58:24;;;;;;;;;4.00;3.33;;;;;22.75;69.36;100002.13;5036782;28;45639;-70
2023/08/14 05:00:49;;;;;;;;;3.67;3.00;;;;;22.82;69.10;100003.69;5035751;28;45647;-70
2023/08/14 05:03:15;;;;;;;;;4.00;4.00;;;;;22.83;69.02;99999.22;5037673;28;45344;-69
2023/08/14 05:05:41;;;;;;;;;3.00;3.00;;;;;22.90;69.06;100008.81;5037259;28;45468;-69
2023/08/14 05:08:07;;;;;;;;;6.00;4.00;;;;;22.87;69.44;100013.34;5035811;28;45378;-70
2023/08/14 05:10:33;;;;;;;;;5.00;3.67;;;;;22.87;69.57;100011.53;5035680;28;45562;-69
2023/08/14 05:12:59;;;;;;;;;5.00;4.00;;;;;22.86;69.20;100014.25;5035668;28;45431;-69
2023/08/14 05:15:24;;;;;;;;;4.33;4.00;;;;;22.92;69.26;100024.72;5038226;28;45378;-69
2023/08/14 05:17:50;;;;;;;;;5.33;4.67;;;;;22.96;69.12;100023.69;5036586;28;45850;-69
2023/08/14 05:20:16;;;;;;;;;6.67;6.00;;;;;22.97;69.12;100022.78;5036947;28;45581;-69
2023/08/14 05:22:43;;;;;;;;;7.33;4.67;;;;;22.82;69.38;100032.13;5036767;28;45428;-69
2023/08/14 05:25:10;;;;;;;;;6.00;5.00;;;;;22.67;70.13;100030.75;5036473;28;45378;-69
2023/08/14 05:27:38;;;;;;;;;4.33;3.33;;;;;22.73;69.78;100032.38;5036139;28;46062;-71
2023/08/14 05:30:06;;;;;;;;;5.33;4.33;;;;;22.73;70.19;100032.38;5034799;28;45371;-69
2023/08/14 05:32:31;;;;;;;;;4.67;4.00;;;;;22.72;70.14;100039.50;5036318;28;45560;-69
2023/08/14 05:34:57;;;;;;;;;3.00;3.00;;;;;22.81;69.43;100044.53;5035772;28;45489;-69
2023/08/14 05:37:23;;;;;;;;;6.00;4.00;;;;;22.90;69.32;100046.09;5035884;28;45818;-70
2023/08/14 05:39:49;;;;;;;;;4.00;4.00;;;;;22.98;69.97;100051.19;5036301;28;45698;-69
2023/08/14 05:42:15;;;;;;;;;5.00;4.00;;;;;22.96;69.47;100056.56;5036353;28;45387;-69
2023/08/14 05:44:41;;;;;;;;;3.67;3.33;;;;;23.05;69.23;100050.13;5036684;28;45547;-71
2023/08/14 05:47:07;;;;;;;;;6.33;4.00;;;;;23.15;69.13;100053.38;5036300;28;45738;-70
2023/08/14 05:49:33;;;;;;;;;4.33;4.33;;;;;23.13;68.84;100034.78;5036267;28;45355;-70
2023/08/14 05:51:58;;;;;;;;;5.67;4.00;;;;;23.03;68.69;100022.66;5035866;28;45328;-70
2023/08/14 05:54:24;;;;;;;;;4.00;4.00;;;;;23.15;68.36;100042.72;5036320;28;45617;-69
2023/08/14 05:56:50;;;;;;;;;5.33;4.33;;;;;23.15;68.60;100043.59;5036553;28;46688;-69
2023/08/14 05:59:16;;;;;;;;;4.33;4.00;;;;;23.15;68.47;100042.72;5035481;28;45643;-69
2023/08/14 06:01:42;;;;;;;;;4.00;3.67;;;;;23.23;68.62;100044.22;5035555;28;45412;-69
2023/08/14 06:04:08;;;;;;;;;4.67;3.00;;;;;23.30;67.97;100046.69;5036324;28;45478;-69
2023/08/14 06:06:34;;;;;;;;;6.33;6.00;;;;;23.39;68.23;100036.63;5034796;28;45782;-69
2023/08/14 06:09:01;;;;;;;;;4.00;3.00;;;;;23.52;67.57;100026.47;5035521;28;45370;-70
2023/08/14 06:11:27;;;;;;;;;6.00;4.33;;;;;23.59;66.97;100027.13;5036236;28;45435;-70
2023/08/14 06:13:52;;;;;;;;;6.00;4.67;;;;;23.54;66.96;100016.63;5039994;28;45277;-70
2023/08/14 06:16:18;;;;;;;;;5.00;4.67;;;;;23.63;67.19;100028.78;5039605;28;46151;-69
2023/08/14 06:18:44;;;;;;;;;4.33;3.67;;;;;23.61;67.43;100023.50;5039269;28;45485;-69
2023/08/14 06:21:10;;;;;;;;;5.00;4.00;;;;;23.68;66.79;100024.19;5039436;28;45493;-69
2023/08/14 06:23:36;;;;;;;;;4.67;3.67;;;;;23.77;66.57;100026.56;5039653;28;45457;-69
2023/08/14 06:26:02;;;;;;;;;4.00;3.33;;;;;23.95;65.88;100019.75;5038898;28;46173;-69
2023/08/14 06:28:28;;;;;;;;;6.00;4.67;;;;;24.14;65.53;100017.34;5038839;28;45521;-69
2023/08/14 06:30:54;;;;;;;;;5.67;5.00;;;;;24.22;65.06;100019.75;5039336;28;45521;-70
2023/08/14 06:33:20;;;;;;;;;4.00;4.00;;;;;24.25;64.96;100030.31;5039931;28;45528;-70
2023/08/14 06:35:45;;;;;;;;;5.00;4.33;;;;;24.32;65.37;100029.19;5037282;28;46199;-69
2023/08/14 06:38:11;;;;;;;;;5.00;5.00;;;;;24.52;64.96;100028.50;5039264;28;45501;-69
2023/08/14 06:40:37;;;;;;;;;7.00;6.00;;;;;24.80;63.91;100033.69;5039010;28;46094;-70
2023/08/14 06:43:03;;;;;;;;;7.00;6.00;;;;;24.91;63.66;100027.97;5038821;28;45690;-70
2023/08/14 06:45:28;;;;;;;;;5.00;4.67;;;;;24.97;63.54;100032.22;5041564;28;45554;-70
2023/08/14 06:47:54;;;;;;;;;6.33;6.00;;;;;24.98;63.08;100017.91;5042742;28;45288;-70
2023/08/14 06:50:20;;;;;;;;;6.33;4.67;;;;;25.07;63.70;100044.31;5039734;28;45442;-70
2023/08/14 06:52:46;;;;;;;;;5.00;4.00;;;;;25.15;63.74;100036.00;5039044;28;45538;-70
2023/08/14 06:55:12;;;;;;;;;5.67;5.00;;;;;25.37;63.44;100041.41;5038053;28;45343;-70
2023/08/14 06:57:37;;;;;;;;;6.00;5.00;;;;;25.49;62.39;100042.72;5038980;28;45533;-70
2023/08/14 07:00:11;;;;;;;;;5.67;5.00;;;;;25.52;62.32;100040.78;5038425;28;45572;-70
2023/08/14 07:02:37;;;;;;;;;5.00;5.00;;;;;25.65;62.09;100051.88;5019533;28;45283;-70
2023/08/14 07:05:03;;;;;;;;;7.00;6.67;;;;;25.58;62.29;100055.72;5026744;28;45497;-70
2023/08/14 07:07:29;;;;;;;;;5.00;5.00;;;;;25.67;61.70;100055.34;5039161;28;45394;-70
2023/08/14 07:09:55;;;;;;;;;5.67;5.33;;;;;25.74;61.31;100038.09;5038950;28;45402;-71
2023/08/14 07:12:21;;;;;;;;;6.00;6.00;;;;;26.05;61.06;100052.06;5039521;28;45410;-70
2023/08/14 07:14:46;;;;;;;;;4.67;4.00;;;;;26.25;60.70;100064.63;5038768;28;46102;-70
2023/08/14 07:17:12;;;;;;;;;6.33;5.67;;;;;26.29;59.86;100064.41;5037440;28;46031;-70
2023/08/14 07:19:38;;;;;;;;;7.00;5.33;;;;;26.32;59.59;100050.91;5038431;28;45395;-70
2023/08/14 07:22:04;;;;;;;;;6.00;5.00;;;;;26.61;58.72;100061.31;5038867;28;45479;-70
2023/08/14 07:24:31;;;;;;;;;6.33;5.00;;;;;26.71;57.92;100063.50;5035792;28;46242;-70
2023/08/14 07:26:59;;;;;;;;;5.67;5.00;;;;;27.14;57.62;100061.56;5036963;28;45573;-70
2023/08/14 07:29:28;;;;;;;;;6.00;4.00;;;;;27.47;56.00;100071.66;5018311;28;45378;-70
2023/08/14 07:31:54;;;;;;;;;4.00;4.00;;;;;27.62;56.44;100071.88;5035917;28;45363;-70
2023/08/14 07:34:19;;;;;;;;;5.33;5.33;;;;;27.32;55.73;100072.41;5036613;28;45299;-70
2023/08/14 07:36:45;;;;;;;;;6.00;5.67;;;;;27.11;57.64;100069.72;5036670;28;45851;-70
2023/08/14 07:39:11;;;;;;;;;4.33;4.00;;;;;27.36;56.39;100087.41;5037863;28;45440;-72
2023/08/14 07:41:37;;;;;;;;;6.00;6.00;;;;;27.22;56.09;100068.34;5037099;28;45785;-69
2023/08/14 07:44:02;;;;;;;;;4.67;4.67;;;;;27.22;56.56;100081.75;5036378;28;45391;-69
2023/08/14 07:46:28;;;;;;;;;7.00;6.00;;;;;27.20;55.98;100079.19;5040004;28;45442;-69
2023/08/14 07:48:54;;;;;;;;;6.33;5.00;;;;;27.28;56.97;100073.50;5036408;28;45484;-68
2023/08/14 07:51:19;;;;;;;;;5.00;5.00;;;;;27.50;56.29;100076.88;5035145;28;45401;-69
2023/08/14 07:53:52;;;;;;;;;5.33;4.67;;;;;27.66;55.87;100079.72;5036525;28;45618;-70
2023/08/14 07:56:19;;;;;;;;;8.00;6.00;;;;;27.63;55.21;100081.66;5033536;28;45536;-69
2023/08/14 07:58:45;;;;;;;;;4.00;3.67;;;;;27.61;55.77;100086.22;5038826;28;45537;-68
2023/08/14 08:01:10;;;;;;;;;4.33;4.00;;;;;27.71;55.53;100083.00;5035144;28;45357;-69
2023/08/14 08:03:36;;;;;;;;;7.00;6.33;;;;;27.51;55.88;100048.25;5032700;28;45495;-70
2023/08/14 08:06:02;;;;;;;;;5.33;4.67;;;;;27.76;55.38;100082.81;5038980;28;46821;-68
2023/08/14 08:08:27;;;;;;;;;8.00;5.00;;;;;27.58;55.25;100063.97;5035800;28;45496;-68
2023/08/14 08:10:53;;;;;;;;;5.00;4.00;;;;;27.73;55.52;100083.81;5035178;28;46810;-68
2023/08/14 08:13:21;;;;;;;;;7.00;5.67;;;;;27.65;55.48;100085.13;5034575;28;45579;-68
2023/08/14 08:15:47;;;;;;;;;6.00;6.00;;;;;27.56;55.30;100091.84;5033469;28;45668;-67
2023/08/14 08:18:12;;;;;;;;;7.00;6.00;;;;;27.60;55.72;100082.69;5036101;28;46046;-68
2023/08/14 08:20:38;;;;;;;;;6.33;5.67;;;;;27.40;55.72;100039.84;5034321;28;45983;-67
2023/08/14 08:23:04;;;;;;;;;9.00;7.00;;;;;27.59;55.30;100091.66;5035884;28;45841;-67
2023/08/14 08:25:29;;;;;;;;;6.00;5.33;;;;;27.65;55.93;100093.19;5034971;28;45446;-68
2023/08/14 08:27:55;;;;;;;;;6.00;6.00;;;;;27.44;55.20;100077.19;5036816;28;45532;-67
2023/08/14 08:30:20;;;;;;;;;6.33;6.00;;;;;27.02;56.21;100088.94;5036024;28;45442;-68
2023/08/14 08:32:56;;;;;;;;;7.33;6.00;;;;;26.72;57.58;100078.66;5035828;28;46508;-67
2023/08/14 08:35:33;;;;;;;;;42.00;34.50;;;;;26.91;57.15;100080.50;5035862;28;45523;-66
2023/08/14 08:37:59;;;;;;;;;9.67;7.00;;;;;27.25;56.54;100087.03;5036278;28;45407;-67
2023/08/14 08:40:26;;;;;;;;;14.33;12.67;;;;;27.37;55.91;100086.44;5046351;28;45488;-67
2023/08/14 08:42:52;;;;;;;;;42.75;36.00;;;;;27.31;56.38;100082.25;5036631;28;45722;-66
2023/08/14 08:45:23;;;;;;;;;10.33;10.00;;;;;27.42;56.09;100095.16;5032295;28;45571;-67
2023/08/14 08:47:50;;;;;;;;;6.33;5.33;;;;;27.48;55.68;100086.81;5037071;28;45480;-67
2023/08/14 08:50:16;;;;;;;;;9.67;9.00;;;;;27.64;55.76;100089.66;5038841;28;45627;-68
2023/08/14 08:52:43;;;;;;;;;5.67;5.67;;;;;27.84;55.33;100091.34;5036452;28;47135;-68
2023/08/14 08:55:14;;;;;;;;;8.00;7.00;;;;;27.78;55.28;100076.41;5035880;28;46137;-67
2023/08/14 08:57:42;;;;;;;;;10.67;8.67;;;;;28.02;55.20;100094.97;5037072;28;45437;-68
2023/08/14 09:00:16;;;;;;;;;7.00;5.33;;;;;28.17;54.75;100087.97;5035527;28;45538;-68
2023/08/14 09:02:43;;;;;;;;;8.67;8.00;;;;;28.15;53.84;100087.16;5035458;28;45517;-68
2023/08/14 09:05:08;;;;;;;;;8.33;6.67;;;;;28.08;54.60;100086.63;5031233;28;45683;-68
2023/08/14 09:07:43;;;;;;;;;8.67;7.33;;;;;28.33;53.91;100093.44;5033385;28;45542;-68
2023/08/14 09:10:12;;;;;;;;;9.00;8.00;;;;;28.56;53.74;100092.28;5034432;28;45577;-68
2023/08/14 09:12:38;;;;;;;;;8.00;7.00;;;;;28.70;52.90;100084.38;5035984;28;46189;-67
2023/08/14 09:15:06;;;;;;;;;8.67;7.67;;;;;28.86;53.36;100097.00;5042475;28;45418;-67
2023/08/14 09:17:33;;;;;;;;;7.33;6.33;;;;;28.98;52.70;100084.72;5037393;28;45529;-67
2023/08/14 09:19:59;;;;;;;;;8.33;6.67;;;;;29.12;52.10;100092.94;5036466;28;45458;-67
2023/08/14 09:22:29;;;;;;;;;16.00;13.00;;;;;29.04;52.54;100090.63;5034483;28;45605;-67
2023/08/14 09:24:57;;;;;;;;;8.00;7.33;;;;;29.05;52.02;100105.81;5035268;28;45485;-67
2023/08/14 09:27:23;;;;;;;;;8.33;7.00;;;;;27.65;53.87;100015.38;5035400;28;46179;-67
2023/08/14 09:29:53;;;;;;;;;10.67;9.67;;;;;28.01;54.23;100095.91;5035730;28;45513;-67
2023/08/14 09:32:25;;;;;;;;;27.25;26.75;;;;;28.14;54.75;100091.69;5035595;28;45397;-66
2023/08/14 09:35:02;;;;;;;;;9.33;9.00;;;;;28.23;53.69;100079.63;5035877;28;45278;-67
2023/08/14 09:37:28;;;;;;;;;11.00;10.00;;;;;28.51;53.72;100079.09;5035759;28;45359;-67
2023/08/14 09:40:17;;;;;;;;;8.33;7.67;;;;;28.69;53.18;100092.50;5035484;28;45405;-67
2023/08/14 09:42:48;;;;;;;;;14.33;13.67;;;;;29.35;52.34;100095.25;5034099;28;47287;-67
2023/08/14 09:45:18;;;;;;;;;7.33;6.67;;;;;29.77;51.36;100081.31;5035536;28;45247;-67
2023/08/14 09:47:45;;;;;;;;;11.00;10.00;;;;;30.11;50.27;100091.00;5034671;28;45412;-67
2023/08/14 09:50:15;;;;;;;;;11.33;9.33;;;;;30.11;49.81;100088.28;5035852;28;45264;-67
2023/08/14 09:52:42;;;;;;;;;9.33;8.33;;;;;29.93;51.19;100091.09;5035019;28;46103;-67
2023/08/14 09:55:09;;;;;;;;;7.33;7.33;;;;;29.93;50.78;100093.78;5034635;28;45548;-67
2023/08/14 09:57:35;;;;;;;;;10.67;9.00;;;;;29.84;50.77;100083.53;5035200;28;45212;-67
2023/08/14 10:00:01;;;;;;;;;10.67;8.67;;;;;29.73;50.96;100086.88;5035420;28;45486;-67
2023/08/14 10:02:26;;;;;;;;;9.67;8.67;;;;;29.61;51.69;100089.38;5033706;28;45593;-66
2023/08/14 10:04:53;;;;;;;;;9.00;9.00;;;;;29.54;51.80;100091.50;5034556;28;45447;-67
2023/08/14 10:07:23;;;;;;;;;9.67;7.00;;;;;29.26;52.50;100082.28;5035378;28;45906;-70
2023/08/14 10:09:55;;;;;;;;;8.67;7.00;;;;;29.34;52.74;100076.47;5035208;28;45564;-79
2023/08/14 10:12:29;;;;;;;;;11.00;10.33;;;;;29.61;51.73;100090.22;5033730;28;46661;-75
2023/08/14 10:15:10;;;;;;;;;20.00;14.67;;;;;29.84;51.19;100082.69;5035441;28;45487;-69
2023/08/14 10:17:51;;;;;;;;;9.00;7.33;;;;;29.98;51.26;100081.88;5035406;28;45558;-69
2023/08/14 10:20:21;;;;;;;;;7.67;7.67;;;;;30.24;50.71;100078.53;5034563;28;45493;-69
2023/08/14 10:22:47;;;;;;;;;12.67;8.67;;;;;30.13;50.00;100078.31;5034925;28;45930;-69
2023/08/14 10:25:14;;;;;;;;;9.33;8.67;;;;;29.98;50.70;100076.50;5034485;28;45403;-68
2023/08/14 10:27:40;;;;;;;;;7.67;5.33;;;;;30.15;50.96;100079.06;5034962;28;45613;-70
2023/08/14 10:30:08;;;;;;;;;6.00;6.00;;;;;30.55;50.71;100060.53;5035870;28;45482;-68
2023/08/14 10:32:36;;;;;;;;;8.00;8.00;;;;;30.87;50.05;100061.25;5032686;28;47143;-69
2023/08/14 10:35:02;;;;;;;;;10.67;10.00;;;;;30.92;49.67;100059.19;5034944;28;45604;-71
2023/08/14 10:37:41;;;;;;;;;9.00;8.00;;;;;30.93;49.46;100060.03;5034362;28;45191;-69
2023/08/14 10:40:20;;;;;;;;;12.33;7.67;;;;;31.04;49.77;100062.94;5034774;28;45232;-75
2023/08/14 10:42:55;;;;;;;;;9.00;8.00;;;;;31.20;49.27;100067.38;5034814;28;46169;-69
2023/08/14 10:45:28;;;;;;;;;9.67;8.00;;;;;31.16;48.72;100058.59;5035179;28;45524;-69
2023/08/14 10:48:08;;;;;;;;;9.00;8.33;;;;;31.13;49.55;100058.78;5036730;28;45886;-70
2023/08/14 10:50:35;;;;;;;;;11.33;8.67;;;;;31.09;49.29;100059.94;5036725;28;47172;-70
2023/08/14 10:53:04;;;;;;;;;8.00;7.00;;;;;31.02;49.34;100059.47;5035877;28;46134;-70
2023/08/14 10:55:37;;;;;;;;;10.00;8.00;;;;;30.97;49.00;100055.31;5026063;28;45575;-71
2023/08/14 10:58:31;;;;;;;;;11.00;8.67;;;;;30.82;48.83;100058.00;5038830;28;45575;-71
2023/08/14 11:00:59;;;;;;;;;12.00;10.00;;;;;30.47;49.95;100057.44;5032783;28;45515;-68
2023/08/14 11:03:25;;;;;;;;;9.00;8.33;;;;;30.51;50.34;100059.84;5036420;28;45681;-73
2023/08/14 11:05:51;;;;;;;;;9.33;9.00;;;;;30.45;49.92;100059.38;5037161;28;45521;-69
2023/08/14 11:08:19;;;;;;;;;11.00;10.00;;;;;30.26;50.41;100055.06;5039336;28;45483;-68
2023/08/14 11:10:45;;;;;;;;;7.33;7.33;;;;;30.31;50.44;100042.19;5037173;28;45473;-70
2023/08/14 11:13:11;;;;;;;;;10.00;9.33;;;;;30.31;50.25;100055.69;5035311;28;46713;-69
2023/08/14 11:15:38;;;;;;;;;21.00;17.00;;;;;30.02;50.12;100032.28;5035384;28;45490;-69
2023/08/14 11:18:06;;;;;;;;;20.00;18.00;;;;;29.92;50.57;100059.75;5037143;28;45696;-67
2023/08/14 11:20:32;;;;;;;;;11.33;9.33;;;;;29.74;51.17;100058.09;5035556;28;45455;-70
2023/08/14 11:23:01;;;;;;;;;12.67;10.33;;;;;29.72;51.47;100054.63;5029513;28;46073;-72
2023/08/14 11:25:28;;;;;;;;;8.00;8.00;;;;;29.75;51.37;100038.31;5037284;28;45969;-74
2023/08/14 11:27:55;;;;;;;;;10.00;9.67;;;;;29.79;51.01;100042.56;5034436;28;45931;-74